createdAt,value
2023-02-09T00:02:14.895Z,23.50
2023-02-09T00:04:41.845Z,21.90
2023-02-09T00:07:08.584Z,18.10
2023-02-09T00:09:35.295Z,20.25
2023-02-09T00:12:20.495Z,26.30
2023-02-09T00:14:47.144Z,27.67
2023-02-09T00:17:13.839Z,22.35
2023-02-09T00:19:40.524Z,24.70
2023-02-09T00:22:07.203Z,21.38
2023-02-09T00:24:33.897Z,19.80
2023-02-09T00:27:00.527Z,24.05
2023-02-09T00:29:27.635Z,21.60
2023-02-09T00:31:54.309Z,26.80
2023-02-09T00:34:21.092Z,26.88
2023-02-09T00:36:47.784Z,22.40
2023-02-09T00:39:14.463Z,28.63
2023-02-09T00:42:00.173Z,25.27
2023-02-09T00:44:27.006Z,22.02
2023-02-09T00:46:53.700Z,26.20
2023-02-09T00:49:20.691Z,22.90
2023-02-09T00:51:47.283Z,21.45
2023-02-09T00:54:14.725Z,20.48
2023-02-09T00:56:41.403Z,24.30
2023-02-09T00:59:08.057Z,18.05
2023-02-09T01:01:35.150Z,22.35
2023-02-09T01:04:02.000Z,22.40
2023-02-09T01:06:28.939Z,20.48
2023-02-09T01:08:55.631Z,17.85
2023-02-09T01:11:27.025Z,24.23
2023-02-09T01:13:57.075Z,21.27
2023-02-09T01:16:24.029Z,22.98
2023-02-09T01:18:51.027Z,24.98
2023-02-09T01:21:20.860Z,21.30
2023-02-09T01:23:47.732Z,18.90
2023-02-09T01:26:16.307Z,20.08
2023-02-09T01:28:43.327Z,24.55
2023-02-09T01:31:28.712Z,23.95
2023-02-09T01:33:57.805Z,22.00
2023-02-09T01:36:25.117Z,21.92
2023-02-09T01:38:53.633Z,18.25
2023-02-09T01:41:20.428Z,25.58
2023-02-09T01:44:36.644Z,19.23
2023-02-09T01:47:03.512Z,19.40
2023-02-09T01:49:30.799Z,19.65
2023-02-09T01:52:04.865Z,20.50
2023-02-09T01:54:48.240Z,21.17
2023-02-09T01:57:18.818Z,24.25
2023-02-09T01:59:51.410Z,22.00
2023-02-09T02:02:18.414Z,30.95
2023-02-09T02:04:45.566Z,20.90
2023-02-09T02:07:35.712Z,24.83
2023-02-09T02:10:02.892Z,21.10
2023-02-09T02:12:29.677Z,22.63
2023-02-09T02:14:56.333Z,18.25
2023-02-09T02:18:28.060Z,21.15
2023-02-09T02:21:36.962Z,15.27
2023-02-09T02:24:43.791Z,17.23
2023-02-09T02:27:39.339Z,20.55
2023-02-09T02:30:20.286Z,21.38
2023-02-09T02:42:16.366Z,24.00
2023-02-09T02:44:50.120Z,16.35
2023-02-09T02:47:20.826Z,23.52
2023-02-09T02:50:03.553Z,16.17
2023-02-09T02:52:30.381Z,18.52
2023-02-09T02:55:10.473Z,22.23
2023-02-09T02:57:40.592Z,18.23
2023-02-09T03:00:12.774Z,15.93
2023-02-09T03:02:47.736Z,20.15
2023-02-09T03:05:17.021Z,19.17
2023-02-09T03:07:44.292Z,19.08
2023-02-09T03:10:34.930Z,19.67
2023-02-09T03:13:40.361Z,16.30
2023-02-09T03:16:34.440Z,20.40
2023-02-09T03:19:43.121Z,27.65
2023-02-09T03:22:41.369Z,21.40
2023-02-09T03:25:15.912Z,20.67
2023-02-09T03:27:52.162Z,19.83
2023-02-09T03:30:20.368Z,26.95
2023-02-09T03:32:47.737Z,23.48
2023-02-09T03:35:20.115Z,23.20
2023-02-09T03:40:13.452Z,23.55
2023-02-09T03:42:40.146Z,25.90
2023-02-09T03:45:10.302Z,20.77
2023-02-09T03:47:36.939Z,23.45
2023-02-09T03:50:04.374Z,22.55
2023-02-09T03:52:31.638Z,18.02
2023-02-09T03:54:58.538Z,80.57
2023-02-09T03:57:25.332Z,98.15
2023-02-09T03:59:51.948Z,73.55
2023-02-09T04:02:18.652Z,69.65
2023-02-09T04:04:45.353Z,151.63
2023-02-09T04:07:12.531Z,69.63
2023-02-09T04:09:39.281Z,52.25
2023-02-09T04:12:06.179Z,66.13
2023-02-09T04:14:32.912Z,254.20
2023-02-09T04:16:59.553Z,192.35
2023-02-09T04:19:26.446Z,79.05
2023-02-09T04:21:53.130Z,119.70
2023-02-09T04:24:21.356Z,116.63
2023-02-09T04:26:47.999Z,71.25
2023-02-09T04:29:14.693Z,35.55
2023-02-09T04:31:41.435Z,39.05
2023-02-09T04:34:08.259Z,21.90
2023-02-09T04:36:34.978Z,24.33
2023-02-09T04:39:01.657Z,21.30
2023-02-09T04:41:28.296Z,23.27
2023-02-09T04:43:54.949Z,24.10
2023-02-09T04:46:21.810Z,20.08
2023-02-09T04:48:48.549Z,20.73
2023-02-09T04:51:15.412Z,20.23
2023-02-09T04:53:42.229Z,24.88
2023-02-09T04:56:14.872Z,20.98
2023-02-09T04:59:00.570Z,28.95
2023-02-09T05:01:27.751Z,29.90
2023-02-09T05:03:54.374Z,21.10
2023-02-09T05:06:21.268Z,23.70
2023-02-09T05:08:48.711Z,25.30
2023-02-09T05:11:15.598Z,22.13
2023-02-09T05:13:42.561Z,26.77
2023-02-09T05:16:13.545Z,27.85
2023-02-09T05:18:40.224Z,23.08
2023-02-09T05:21:06.872Z,27.25
2023-02-09T05:23:33.789Z,27.23
2023-02-09T05:26:00.474Z,25.55
2023-02-09T05:28:27.273Z,36.55
2023-02-09T05:30:54.157Z,19.63
2023-02-09T05:33:25.760Z,19.73
2023-02-09T05:35:53.501Z,20.73
2023-02-09T05:38:20.196Z,22.05
2023-02-09T05:40:47.276Z,21.58
2023-02-09T05:43:15.104Z,22.50
2023-02-09T05:45:41.782Z,26.00
2023-02-09T05:48:08.449Z,21.25
2023-02-09T05:50:36.066Z,24.00
2023-02-09T05:53:02.724Z,19.58
2023-02-09T05:55:29.382Z,23.15
2023-02-09T05:57:56.370Z,24.42
2023-02-09T06:00:25.054Z,28.10
2023-02-09T06:02:51.908Z,20.13
2023-02-09T06:05:20.842Z,36.85
2023-02-09T06:07:48.314Z,17.83
2023-02-09T06:10:15.155Z,26.70
2023-02-09T06:12:41.796Z,25.98
2023-02-09T06:15:10.385Z,25.13
2023-02-09T06:17:37.280Z,26.50
2023-02-09T06:20:04.532Z,25.80
2023-02-09T06:22:31.792Z,26.23
2023-02-09T06:24:58.486Z,27.23
2023-02-09T06:27:25.214Z,24.80
2023-02-09T06:29:51.871Z,22.75
2023-02-09T06:32:18.575Z,27.30
2023-02-09T06:34:45.301Z,19.85
2023-02-09T06:37:11.960Z,26.80
2023-02-09T06:39:38.623Z,25.08
2023-02-09T06:42:05.407Z,29.35
2023-02-09T06:44:32.024Z,26.38
2023-02-09T06:46:58.641Z,22.00
2023-02-09T06:49:26.628Z,23.75
2023-02-09T06:51:53.398Z,24.55
2023-02-09T06:54:20.695Z,24.50
2023-02-09T06:56:47.902Z,26.17
2023-02-09T06:59:14.691Z,25.88
2023-02-09T07:01:41.507Z,27.55
2023-02-09T07:04:08.191Z,26.40
2023-02-09T07:06:35.004Z,31.83
2023-02-09T07:09:01.988Z,24.45
2023-02-09T07:11:28.716Z,23.08
2023-02-09T07:13:55.347Z,25.08
2023-02-09T07:16:22.325Z,23.50
2023-02-09T07:18:49.032Z,19.38
2023-02-09T07:21:18.464Z,24.85
2023-02-09T07:23:45.794Z,24.88
2023-02-09T07:26:17.606Z,22.63
2023-02-09T07:28:44.687Z,26.35
2023-02-09T07:31:13.875Z,21.75
2023-02-09T07:33:40.832Z,21.90
2023-02-09T07:36:10.265Z,19.58
2023-02-09T07:38:38.474Z,23.17
2023-02-09T07:41:06.946Z,20.40
2023-02-09T07:43:34.336Z,25.70
2023-02-09T07:46:05.105Z,23.33
2023-02-09T07:48:32.817Z,27.20
2023-02-09T07:50:59.482Z,27.38
2023-02-09T07:53:26.754Z,25.65
2023-02-09T07:55:53.671Z,28.10
2023-02-09T07:58:21.222Z,24.92
2023-02-09T08:00:50.964Z,27.15
2023-02-09T08:03:20.586Z,30.42
2023-02-09T08:06:11.106Z,24.33
2023-02-09T08:08:37.718Z,21.35
2023-02-09T08:11:05.476Z,22.30
2023-02-09T08:13:37.879Z,29.77
2023-02-09T08:18:39.900Z,22.55
2023-02-09T08:21:09.766Z,20.70
2023-02-09T08:23:39.018Z,21.20
2023-02-09T08:26:10.047Z,24.95
2023-02-09T08:28:44.052Z,25.15
2023-02-09T08:31:16.583Z,22.60
2023-02-09T08:33:44.706Z,25.75
2023-02-09T08:36:13.034Z,24.70
2023-02-09T08:38:40.232Z,22.63
2023-02-09T08:41:09.773Z,24.20
2023-02-09T08:43:36.835Z,23.60
2023-02-09T08:46:11.830Z,23.35
2023-02-09T08:48:43.669Z,25.38
2023-02-09T08:51:12.789Z,23.38
2023-02-09T08:53:39.733Z,22.35
2023-02-09T08:56:06.912Z,24.13
2023-02-09T08:58:33.614Z,23.98
2023-02-09T09:01:00.536Z,22.27
2023-02-09T09:03:31.261Z,21.38
2023-02-09T09:06:02.502Z,23.52
2023-02-09T09:08:31.100Z,25.17
2023-02-09T09:10:58.025Z,28.35
2023-02-09T09:13:25.187Z,29.77
2023-02-09T09:15:53.986Z,23.90
2023-02-09T09:18:21.328Z,21.45
2023-02-09T09:20:47.985Z,26.65
2023-02-09T09:23:14.688Z,21.70
2023-02-09T09:25:41.960Z,21.30
2023-02-09T09:28:09.395Z,18.70
2023-02-09T09:30:36.826Z,28.25
2023-02-09T09:33:03.656Z,19.52
2023-02-09T09:35:31.066Z,19.65
2023-02-09T09:37:58.545Z,26.60
2023-02-09T09:40:29.124Z,29.98
2023-02-09T09:42:58.283Z,29.17
2023-02-09T09:45:28.034Z,29.48
2023-02-09T09:47:56.332Z,23.95
2023-02-09T09:50:27.967Z,20.85
2023-02-09T09:53:00.950Z,28.17
2023-02-09T09:55:30.751Z,22.10
2023-02-09T09:58:01.217Z,20.60
2023-02-09T10:00:34.193Z,24.83
2023-02-09T10:03:00.903Z,18.88
2023-02-09T10:05:30.126Z,25.92
2023-02-09T10:08:17.186Z,32.33
2023-02-09T10:10:57.676Z,20.67
2023-02-09T10:13:37.107Z,22.58
2023-02-09T10:16:04.250Z,26.40
2023-02-09T10:18:33.226Z,46.00
2023-02-09T10:21:08.884Z,29.42
2023-02-09T10:24:08.805Z,36.05
2023-02-09T10:26:39.294Z,41.55
2023-02-09T10:29:23.146Z,22.88
2023-02-09T10:32:14.562Z,66.95
2023-02-09T10:34:52.671Z,36.25
2023-02-09T10:37:39.807Z,31.13
2023-02-09T10:40:14.459Z,27.40
2023-02-09T10:42:57.629Z,96.68
2023-02-09T10:45:42.047Z,31.90
2023-02-09T10:48:18.888Z,29.50
2023-02-09T10:51:06.769Z,44.70
2023-02-09T10:53:37.044Z,83.75
2023-02-09T10:56:16.664Z,81.70
2023-02-09T10:58:51.211Z,24.70
2023-02-09T11:01:24.368Z,48.88
2023-02-09T11:04:20.712Z,34.13
2023-02-09T11:06:55.258Z,52.92
2023-02-09T11:09:29.261Z,51.13
2023-02-09T11:11:55.977Z,27.92
2023-02-09T11:14:23.232Z,24.42
2023-02-09T11:17:14.666Z,28.88
2023-02-09T11:19:55.805Z,33.60
2023-02-09T11:23:18.211Z,145.65
2023-02-09T11:25:45.764Z,69.90
2023-02-09T11:28:33.779Z,39.00
2023-02-09T11:31:41.926Z,43.38
2023-02-09T11:34:46.963Z,26.10
2023-02-09T11:37:56.285Z,45.85
2023-02-09T11:40:53.851Z,36.75
2023-02-09T11:43:30.981Z,21.33
2023-02-09T11:46:03.678Z,20.42
2023-02-09T11:48:40.770Z,16.83
2023-02-09T11:51:21.085Z,17.98
2023-02-09T11:53:59.407Z,20.30
2023-02-09T11:56:28.219Z,19.13
2023-02-09T11:59:03.787Z,17.27
2023-02-09T12:02:06.108Z,14.00
2023-02-09T12:04:58.571Z,15.02
2023-02-09T12:07:37.229Z,13.43
2023-02-09T12:16:34.902Z,12.75
2023-02-09T12:19:04.136Z,14.77
2023-02-09T12:21:34.163Z,18.48
2023-02-09T12:24:01.573Z,12.55
2023-02-09T12:26:54.165Z,13.90
2023-02-09T12:29:26.348Z,16.40
2023-02-09T12:32:41.186Z,10.25
2023-02-09T12:35:26.493Z,10.07
2023-02-09T12:38:17.981Z,15.48
2023-02-09T12:41:02.396Z,12.70
2023-02-09T12:43:31.101Z,15.48
2023-02-09T12:46:36.652Z,11.07
2023-02-09T12:49:32.547Z,12.70
2023-02-09T12:52:15.274Z,17.80
2023-02-09T12:57:23.888Z,13.27
2023-02-09T13:00:10.697Z,16.88
2023-02-09T13:02:50.109Z,17.23
2023-02-09T13:05:26.755Z,11.38
2023-02-09T13:08:29.040Z,19.60
2023-02-09T13:11:05.425Z,15.03
2023-02-09T13:13:38.126Z,10.30
2023-02-09T13:16:04.661Z,12.20
2023-02-09T13:18:34.465Z,13.82
2023-02-09T13:21:38.434Z,14.38
2023-02-09T13:24:23.581Z,14.30
2023-02-09T13:26:56.336Z,14.48
2023-02-09T13:29:31.417Z,11.57
2023-02-09T13:32:41.278Z,11.40
2023-02-09T13:35:15.884Z,10.57
2023-02-09T13:37:48.905Z,8.10
2023-02-09T13:40:18.473Z,10.80
2023-02-09T13:43:31.299Z,10.52
2023-02-09T13:45:59.467Z,12.50
2023-02-09T13:48:32.490Z,10.13
2023-02-09T13:51:13.296Z,10.85
2023-02-09T13:53:39.897Z,11.10
2023-02-09T13:56:11.212Z,13.48
2023-02-09T13:58:39.614Z,14.93
2023-02-09T14:01:18.091Z,10.82
2023-02-09T14:03:58.257Z,11.23
2023-02-09T14:06:32.606Z,12.90
2023-02-09T14:09:00.242Z,12.40
2023-02-09T14:11:51.676Z,13.20
2023-02-09T14:14:53.050Z,7.85
2023-02-09T14:17:31.883Z,13.85
2023-02-09T14:19:59.625Z,14.07
2023-02-09T14:22:35.574Z,14.57
2023-02-09T14:25:29.538Z,11.27
2023-02-09T14:27:57.795Z,18.48
2023-02-09T14:30:27.888Z,13.70
2023-02-09T14:32:56.652Z,16.25
2023-02-09T14:35:29.181Z,16.35
2023-02-09T14:38:01.500Z,13.07
2023-02-09T14:40:34.278Z,14.63
2023-02-09T14:43:24.949Z,12.15
2023-02-09T14:46:00.935Z,14.95
2023-02-09T14:48:29.388Z,13.73
2023-02-09T14:51:01.514Z,12.65
2023-02-09T14:53:30.993Z,16.55
2023-02-09T14:55:58.793Z,15.43
2023-02-09T14:58:28.399Z,13.48
2023-02-09T15:00:57.365Z,18.33
2023-02-09T15:03:24.052Z,12.75
2023-02-09T15:05:55.110Z,13.88
2023-02-09T15:08:25.253Z,14.23
2023-02-09T15:10:56.040Z,12.00
2023-02-09T15:13:23.110Z,10.35
2023-02-09T15:15:49.887Z,16.40
2023-02-09T15:18:22.034Z,14.77
2023-02-09T15:20:48.894Z,11.68
2023-02-09T15:23:15.937Z,21.45
2023-02-09T15:25:43.304Z,11.98
2023-02-09T15:28:32.260Z,9.68
2023-02-09T15:30:59.401Z,11.18
2023-02-09T15:33:27.250Z,22.92
2023-02-09T15:35:53.920Z,12.27
2023-02-09T15:38:20.582Z,11.45
2023-02-09T15:41:07.924Z,10.20
2023-02-09T15:43:53.972Z,9.93
2023-02-09T15:46:41.823Z,12.85
2023-02-09T15:49:08.988Z,10.38
2023-02-09T15:51:38.140Z,15.05
2023-02-09T15:54:09.477Z,11.68
2023-02-09T15:56:36.691Z,16.30
2023-02-09T15:59:05.473Z,15.02
2023-02-09T16:01:35.765Z,13.63
2023-02-09T16:04:14.040Z,21.00
2023-02-09T16:06:50.964Z,14.55
2023-02-09T16:09:20.502Z,15.10
2023-02-09T16:11:48.465Z,12.57
2023-02-09T16:14:21.280Z,11.57
2023-02-09T16:16:48.769Z,16.98
2023-02-09T16:19:16.848Z,12.38
2023-02-09T16:21:53.051Z,13.63
2023-02-09T16:24:30.732Z,20.45
2023-02-09T16:27:01.985Z,60.65
2023-02-09T16:29:28.938Z,107.68
2023-02-09T16:31:55.879Z,48.25
2023-02-09T16:34:22.616Z,50.50
2023-02-09T16:36:49.667Z,40.15
2023-02-09T16:39:18.529Z,31.20
2023-02-09T16:41:53.591Z,44.15
2023-02-09T16:44:30.385Z,26.40
2023-02-09T16:47:00.590Z,51.85
2023-02-09T16:49:39.562Z,30.00
2023-02-09T16:52:15.112Z,30.77
2023-02-09T16:54:48.284Z,35.25
2023-02-09T16:57:18.148Z,34.97
2023-02-09T16:59:44.909Z,26.50
2023-02-09T17:02:46.379Z,37.60
2023-02-09T17:05:28.791Z,176.23
2023-02-09T17:08:01.075Z,29.17
2023-02-09T17:10:32.715Z,21.10
2023-02-09T17:13:01.881Z,22.80
2023-02-09T17:15:31.930Z,44.85
2023-02-09T17:18:03.497Z,38.35
2023-02-09T17:20:37.232Z,35.83
2023-02-09T17:23:04.208Z,25.98
2023-02-09T17:25:31.142Z,24.02
2023-02-09T17:27:57.876Z,29.00
2023-02-09T17:30:24.586Z,39.55
2023-02-09T17:32:59.561Z,27.65
2023-02-09T17:35:52.930Z,22.75
2023-02-09T17:38:21.823Z,28.10
2023-02-09T17:40:49.332Z,20.10
2023-02-09T17:43:16.226Z,23.08
2023-02-09T17:45:49.283Z,15.82
2023-02-09T17:48:19.721Z,27.45
2023-02-09T17:50:48.704Z,18.58
2023-02-09T17:53:19.072Z,17.50
2023-02-09T17:55:46.646Z,20.10
2023-02-09T17:58:14.483Z,14.00
2023-02-09T18:00:42.337Z,15.70
2023-02-09T18:03:18.093Z,20.63
2023-02-09T18:05:47.501Z,19.38
2023-02-09T18:08:14.500Z,18.92
2023-02-09T18:10:41.112Z,18.20
2023-02-09T18:13:15.696Z,25.17
2023-02-09T18:15:43.246Z,19.52
2023-02-09T18:18:10.294Z,20.45
2023-02-09T18:20:37.267Z,21.85
2023-02-09T18:23:04.926Z,28.35
2023-02-09T18:25:37.031Z,19.65
2023-02-09T18:28:06.633Z,22.92
2023-02-09T18:30:36.865Z,21.63
2023-02-09T18:33:04.936Z,17.25
2023-02-09T18:35:34.613Z,18.77
2023-02-09T18:38:02.184Z,20.13
2023-02-09T18:40:29.783Z,19.45
2023-02-09T18:43:01.256Z,15.18
2023-02-09T18:45:30.465Z,21.05
2023-02-09T18:47:57.618Z,20.95
2023-02-09T18:50:27.200Z,18.00
2023-02-09T18:53:00.137Z,22.17
2023-02-09T18:55:30.727Z,20.25
2023-02-09T18:57:59.780Z,15.18
2023-02-09T19:00:26.870Z,15.90
2023-02-09T19:02:57.576Z,13.93
2023-02-09T19:05:27.714Z,15.05
2023-02-09T19:07:55.850Z,26.42
2023-02-09T19:10:23.505Z,16.45
2023-02-09T19:12:50.186Z,21.65
2023-02-09T19:15:18.256Z,19.40
2023-02-09T19:17:46.176Z,19.73
2023-02-09T19:20:17.319Z,23.95
2023-02-09T19:22:44.209Z,28.00
2023-02-09T19:25:10.869Z,34.72
2023-02-09T19:27:37.615Z,30.83
2023-02-09T19:30:05.109Z,27.05
2023-02-09T19:32:32.209Z,31.90
2023-02-09T19:34:58.842Z,30.38
2023-02-09T19:37:25.568Z,30.23
2023-02-09T19:40:05.048Z,31.08
2023-02-09T19:42:32.669Z,25.83
2023-02-09T19:44:59.303Z,24.02
2023-02-09T19:47:27.341Z,32.95
2023-02-09T19:49:55.548Z,21.45
2023-02-09T19:52:23.065Z,16.85
2023-02-09T19:54:50.636Z,25.27
2023-02-09T19:57:21.748Z,42.67
2023-02-09T19:59:48.515Z,21.13
2023-02-09T20:02:16.586Z,22.75
2023-02-09T20:04:44.054Z,19.30
2023-02-09T20:07:11.136Z,19.50
2023-02-09T20:09:37.832Z,19.02
2023-02-09T20:12:04.886Z,19.42
2023-02-09T20:14:33.573Z,20.35
2023-02-09T20:17:00.526Z,18.52
2023-02-09T20:19:27.284Z,16.83
2023-02-09T20:21:53.952Z,27.20
2023-02-09T20:24:20.626Z,20.55
2023-02-09T20:26:48.123Z,21.08
2023-02-09T20:29:16.730Z,19.73
2023-02-09T20:31:43.967Z,23.55
2023-02-09T20:34:13.212Z,21.00
2023-02-09T20:36:41.677Z,19.95
2023-02-09T20:39:13.297Z,19.52
2023-02-09T20:41:59.912Z,20.15
2023-02-09T20:44:45.180Z,18.75
2023-02-09T20:47:11.755Z,22.13
2023-02-09T20:49:40.494Z,14.90
2023-02-09T20:52:07.796Z,18.00
2023-02-09T20:54:34.673Z,18.60
2023-02-09T20:57:01.292Z,20.42
2023-02-09T20:59:28.084Z,14.38
2023-02-09T21:01:54.684Z,16.45
2023-02-09T21:04:21.497Z,14.65
2023-02-09T21:06:48.510Z,18.02
2023-02-09T21:09:15.976Z,17.73
2023-02-09T21:11:42.946Z,15.13
2023-02-09T21:14:21.660Z,22.58
2023-02-09T21:16:56.159Z,14.60
2023-02-09T21:19:24.361Z,16.00
2023-02-09T21:21:51.255Z,14.38
2023-02-09T21:24:18.322Z,13.20
2023-02-09T21:26:45.451Z,11.98
2023-02-09T21:29:13.643Z,13.93
2023-02-09T21:31:40.495Z,19.40
2023-02-09T21:34:07.214Z,14.07
2023-02-09T21:36:37.434Z,19.40
2023-02-09T21:39:04.652Z,19.50
2023-02-09T21:41:49.599Z,15.02
2023-02-09T21:44:16.211Z,17.88
2023-02-09T21:46:42.927Z,11.02
2023-02-09T21:49:12.381Z,13.93
2023-02-09T21:51:40.298Z,16.90
2023-02-09T21:54:06.912Z,13.82
2023-02-09T21:56:33.651Z,15.52
2023-02-09T21:59:00.220Z,13.20
2023-02-09T22:01:26.911Z,14.25
2023-02-09T22:03:57.204Z,11.95
2023-02-09T22:06:29.899Z,11.73
2023-02-09T22:08:56.882Z,10.45
2023-02-09T22:11:23.540Z,12.70
2023-02-09T22:13:50.150Z,12.93
2023-02-09T22:16:19.397Z,11.88
2023-02-09T22:18:46.124Z,13.85
2023-02-09T22:21:12.857Z,13.95
2023-02-09T22:23:39.545Z,16.65
2023-02-09T22:26:06.589Z,23.38
2023-02-09T22:28:36.412Z,15.10
2023-02-09T22:31:18.118Z,16.33
2023-02-09T22:33:45.229Z,18.70
2023-02-09T22:36:15.007Z,15.15
2023-02-09T22:38:42.194Z,14.77
2023-02-09T22:41:23.531Z,16.73
2023-02-09T22:43:55.645Z,14.23
2023-02-09T22:46:28.988Z,16.80
2023-02-09T22:49:01.509Z,20.70
2023-02-09T22:51:30.764Z,16.23
2023-02-09T22:53:58.814Z,13.68
2023-02-09T22:56:26.638Z,15.15
2023-02-09T22:58:54.166Z,19.15
2023-02-09T23:01:21.119Z,15.93
2023-02-09T23:03:47.884Z,22.88
2023-02-09T23:06:17.938Z,20.88
2023-02-09T23:08:45.093Z,18.88
2023-02-09T23:11:14.811Z,23.90
2023-02-09T23:13:41.784Z,15.88
2023-02-09T23:16:12.626Z,15.63
2023-02-09T23:18:40.323Z,15.93
2023-02-09T23:21:08.112Z,17.35
2023-02-09T23:23:34.751Z,16.67
2023-02-09T23:26:01.590Z,12.93
2023-02-09T23:28:28.654Z,13.45
2023-02-09T23:30:55.402Z,12.18
2023-02-09T23:33:22.233Z,11.70
2023-02-09T23:35:49.224Z,11.02
2023-02-09T23:38:17.959Z,9.93
2023-02-09T23:40:44.624Z,13.68
2023-02-09T23:43:11.303Z,12.13
2023-02-09T23:45:37.943Z,12.15
2023-02-09T23:48:04.832Z,7.38
2023-02-09T23:50:31.461Z,13.45
2023-02-09T23:52:58.075Z,14.98
2023-02-09T23:55:24.713Z,14.10
2023-02-09T23:57:51.315Z,13.43
